Rio Negro, Brazil
Current Conditions -  °F | °C
As of 5:00 PM on Sunday 23 Nov 2014 (Local Time) from SBCG Reporting Station
Rain Showers Rain Showers  
Wind Chill: 75°   Ceiling: 3000
Heat Index: 75°   Visibility: 6mi
Dew Point: 70°   Wind: 9mph
Humidity: 83%   Direction: 10°N
Pressure: NA   Gusts: NA
Location:  19.45°S, 54.97°W
Report Text: SBCG 232000Z 01008KT 9999 VCSH BKN030 FEW040TCU SCT100 24/21 Q1011
Loading
Personal Weather Stations






























Interactive Weather Map New forecast layout! Learn more

10-Day Weather Forecast

Advertisements
Track Severe Weather on mobile